createdAt,value
2019-01-25T00:01:58.563Z,132.77
2019-01-25T00:04:27.252Z,130.13
2019-01-25T00:06:56.010Z,143.67
2019-01-25T00:09:24.664Z,130.23
2019-01-25T00:11:53.349Z,132.93
2019-01-25T00:14:22.109Z,154.83
2019-01-25T00:16:50.853Z,142.40
2019-01-25T00:19:19.511Z,142.70
2019-01-25T00:21:48.092Z,148.27
2019-01-25T00:24:16.755Z,151.13
2019-01-25T00:26:45.393Z,137.87
2019-01-25T00:29:14.128Z,136.57
2019-01-25T00:31:42.829Z,147.13
2019-01-25T00:34:12.609Z,142.50
2019-01-25T00:36:41.209Z,131.60
2019-01-25T00:39:10.163Z,141.33
2019-01-25T00:41:38.973Z,146.87
2019-01-25T00:44:09.637Z,143.87
2019-01-25T00:46:38.073Z,143.23
2019-01-25T00:49:06.642Z,120.27
2019-01-25T00:51:35.277Z,133.10
2019-01-25T00:54:03.987Z,136.57
2019-01-25T00:56:32.679Z,132.93
2019-01-25T00:59:02.902Z,145.53
2019-01-25T01:01:31.655Z,149.90
2019-01-25T01:04:00.261Z,139.53
2019-01-25T01:06:28.902Z,135.67
2019-01-25T01:08:57.549Z,146.17
2019-01-25T01:11:26.119Z,158.83
2019-01-25T01:13:54.688Z,145.93
2019-01-25T01:16:23.308Z,137.50
2019-01-25T01:18:51.912Z,142.60
2019-01-25T01:21:20.608Z,145.87
2019-01-25T01:23:49.321Z,153.63
2019-01-25T01:26:17.998Z,171.10
2019-01-25T01:28:46.984Z,163.43
2019-01-25T01:31:15.555Z,164.00
2019-01-25T01:33:44.599Z,173.93
2019-01-25T01:36:13.206Z,152.70
2019-01-25T01:38:41.780Z,159.87
2019-01-25T01:41:10.754Z,161.17
2019-01-25T01:43:39.404Z,146.50
2019-01-25T01:46:08.026Z,167.33
2019-01-25T01:48:36.705Z,163.50
2019-01-25T01:51:06.644Z,153.20
2019-01-25T01:53:35.230Z,156.03
2019-01-25T01:56:04.026Z,163.70
2019-01-25T01:58:32.678Z,168.63
2019-01-25T02:01:01.384Z,171.60
2019-01-25T02:03:30.306Z,156.60
2019-01-25T02:05:59.120Z,163.30
2019-01-25T02:08:27.817Z,165.57
2019-01-25T02:10:56.410Z,151.63
2019-01-25T02:13:25.072Z,153.80
2019-01-25T02:15:53.604Z,146.70
2019-01-25T02:18:22.444Z,147.97
2019-01-25T02:20:51.023Z,152.80
2019-01-25T02:23:19.542Z,141.93
2019-01-25T02:25:48.344Z,156.57
2019-01-25T02:28:25.565Z,132.93
2019-01-25T02:30:54.110Z,136.20
2019-01-25T02:33:22.669Z,148.80
2019-01-25T02:35:51.279Z,131.87
2019-01-25T02:38:20.478Z,137.63
2019-01-25T02:40:49.018Z,142.63
2019-01-25T02:43:17.641Z,152.17
2019-01-25T02:45:46.390Z,156.80
2019-01-25T02:48:18.739Z,150.70
2019-01-25T02:50:47.473Z,144.60
2019-01-25T02:53:16.187Z,145.37
2019-01-25T02:55:44.673Z,144.67
2019-01-25T02:58:13.174Z,134.33
2019-01-25T03:00:41.691Z,129.83
2019-01-25T03:03:10.298Z,146.13
2019-01-25T03:05:38.891Z,142.97
2019-01-25T03:08:07.637Z,137.77
2019-01-25T03:10:36.340Z,128.03
2019-01-25T03:13:05.052Z,128.70
2019-01-25T03:15:33.740Z,120.43
2019-01-25T03:18:04.953Z,116.90
2019-01-25T03:20:33.464Z,113.50
2019-01-25T03:23:07.630Z,116.53
2019-01-25T03:25:36.242Z,120.30
2019-01-25T03:28:04.790Z,124.43
2019-01-25T03:30:33.784Z,120.50
2019-01-25T03:33:02.414Z,127.77
2019-01-25T03:35:31.324Z,122.87
2019-01-25T03:37:59.979Z,127.70
2019-01-25T03:40:28.670Z,112.17
2019-01-25T03:42:57.253Z,125.23
2019-01-25T03:45:26.093Z,113.87
2019-01-25T03:47:54.775Z,121.77
2019-01-25T03:50:27.149Z,112.33
2019-01-25T03:52:56.766Z,124.70
2019-01-25T03:55:25.643Z,113.43
2019-01-25T03:57:54.334Z,115.90
2019-01-25T04:00:26.211Z,115.27
2019-01-25T04:02:54.881Z,108.30
2019-01-25T04:05:23.410Z,104.60
2019-01-25T04:07:52.060Z,111.47
2019-01-25T04:10:21.257Z,112.80
2019-01-25T04:12:49.809Z,122.80
2019-01-25T04:15:19.399Z,120.07
2019-01-25T04:17:48.151Z,112.10
2019-01-25T04:20:16.744Z,109.90
2019-01-25T04:22:45.287Z,113.70
2019-01-25T04:25:15.048Z,111.77
2019-01-25T04:27:44.152Z,116.13
2019-01-25T04:30:17.407Z,113.47
2019-01-25T04:32:45.998Z,121.20
2019-01-25T04:35:14.647Z,115.83
2019-01-25T04:37:43.355Z,120.00
2019-01-25T04:40:12.556Z,120.73
2019-01-25T04:42:42.290Z,124.27
2019-01-25T04:45:11.919Z,123.13
2019-01-25T04:47:40.531Z,119.60
2019-01-25T04:50:10.513Z,128.80
2019-01-25T04:52:39.068Z,119.60
2019-01-25T04:55:17.984Z,128.33
2019-01-25T04:57:46.704Z,114.93
2019-01-25T05:00:15.502Z,122.97
2019-01-25T05:02:57.002Z,117.80
2019-01-25T05:05:25.601Z,108.63
2019-01-25T05:08:13.377Z,136.23
2019-01-25T05:10:41.963Z,120.37
2019-01-25T05:13:11.526Z,119.77
2019-01-25T05:15:41.009Z,117.37
2019-01-25T05:18:09.696Z,112.83
2019-01-25T05:20:38.285Z,122.00
2019-01-25T05:23:07.034Z,112.90
2019-01-25T05:25:35.528Z,111.43
2019-01-25T05:28:16.624Z,119.63
2019-01-25T05:30:55.391Z,124.77
2019-01-25T05:33:23.830Z,123.80
2019-01-25T05:35:52.412Z,123.80
2019-01-25T05:38:21.096Z,121.40
2019-01-25T05:40:49.607Z,127.93
2019-01-25T05:43:18.094Z,129.80
2019-01-25T05:45:46.604Z,126.87
2019-01-25T05:48:15.086Z,129.63
2019-01-25T05:50:43.485Z,129.37
2019-01-25T05:53:12.019Z,124.90
2019-01-25T05:55:42.172Z,123.27
2019-01-25T05:58:10.646Z,128.50
2019-01-25T06:00:40.945Z,115.30
2019-01-25T06:03:12.824Z,116.63
2019-01-25T06:05:41.330Z,120.87
2019-01-25T06:08:29.681Z,125.50
2019-01-25T06:10:58.987Z,121.57
2019-01-25T06:13:27.470Z,123.43
2019-01-25T06:15:56.337Z,124.73
2019-01-25T06:18:24.845Z,120.57
2019-01-25T06:20:56.241Z,116.90
2019-01-25T06:23:26.541Z,108.97
2019-01-25T06:25:55.932Z,112.23
2019-01-25T06:28:24.675Z,121.00
2019-01-25T06:30:53.390Z,116.70
2019-01-25T06:33:21.874Z,116.17
2019-01-25T06:35:50.532Z,128.67
2019-01-25T06:38:19.071Z,118.07
2019-01-25T06:40:47.620Z,122.07
2019-01-25T06:43:16.295Z,115.50
2019-01-25T06:45:45.013Z,119.73
2019-01-25T06:48:13.627Z,107.27
2019-01-25T06:50:42.126Z,122.53
2019-01-25T06:53:13.402Z,116.97
2019-01-25T06:55:42.347Z,115.00
2019-01-25T06:58:34.335Z,121.27
2019-01-25T07:01:13.607Z,129.53
2019-01-25T07:03:43.445Z,112.87
2019-01-25T07:06:12.166Z,128.30
2019-01-25T07:08:40.920Z,130.10
2019-01-25T07:11:09.803Z,120.00
2019-01-25T07:13:41.446Z,118.53
2019-01-25T07:16:12.107Z,131.73
2019-01-25T07:18:40.830Z,134.73
2019-01-25T07:21:17.442Z,128.73
2019-01-25T07:23:47.575Z,125.50
2019-01-25T07:26:49.534Z,114.60
2019-01-25T07:29:36.884Z,111.73
2019-01-25T07:32:11.839Z,105.30
2019-01-25T07:34:51.885Z,102.93
2019-01-25T07:37:21.065Z,107.37
2019-01-25T07:39:50.072Z,102.57
2019-01-25T07:42:20.994Z,107.10
2019-01-25T07:44:58.305Z,105.97
2019-01-25T07:47:31.889Z,114.13
2019-01-25T07:50:01.103Z,108.53
2019-01-25T07:52:34.241Z,95.63
2019-01-25T07:55:03.216Z,108.27
2019-01-25T07:57:33.205Z,104.20
2019-01-25T08:00:01.982Z,95.60
2019-01-25T08:02:31.167Z,102.90
2019-01-25T08:05:02.819Z,112.60
2019-01-25T08:07:31.616Z,109.20
2019-01-25T08:10:06.149Z,103.30
2019-01-25T08:12:34.908Z,115.17
2019-01-25T08:15:12.026Z,110.63
2019-01-25T08:17:43.623Z,119.07
2019-01-25T08:20:12.350Z,106.17
2019-01-25T11:00:11.851Z,96.63
2019-01-25T11:06:14.007Z,111.43
2019-01-25T11:20:40.452Z,130.10
2019-01-25T12:16:19.171Z,168.83
2019-01-25T12:32:08.058Z,128.83
2019-01-25T12:34:37.756Z,137.40
2019-01-25T12:37:09.283Z,133.07
2019-01-25T12:39:38.284Z,133.60
2019-01-25T13:03:54.014Z,126.87
2019-01-25T13:06:36.337Z,116.03
2019-01-25T13:29:09.035Z,123.27
2019-01-25T13:31:40.412Z,105.93
2019-01-25T13:34:09.193Z,114.53
2019-01-25T13:37:25.122Z,110.70
2019-01-25T13:39:54.098Z,104.07
2019-01-25T13:42:26.173Z,111.87
2019-01-25T13:44:57.423Z,105.43
2019-01-25T13:47:46.181Z,111.30
2019-01-25T14:01:34.559Z,120.93
2019-01-25T14:05:21.569Z,109.10
2019-01-25T14:15:15.065Z,112.57
2019-01-25T14:18:23.804Z,101.77
2019-01-25T14:20:50.180Z,105.20
2019-01-25T14:23:19.352Z,112.90
2019-01-25T14:26:13.316Z,122.80
2019-01-25T14:28:42.059Z,116.40
2019-01-25T14:31:10.725Z,105.87
2019-01-25T14:33:39.244Z,110.57
2019-01-25T14:36:10.915Z,111.47
2019-01-25T14:38:39.753Z,116.27
2019-01-25T14:41:12.170Z,106.97
2019-01-25T15:01:53.129Z,113.47
2019-01-25T15:21:12.136Z,100.93
2019-01-25T15:23:58.724Z,111.17
2019-01-25T15:34:29.695Z,93.23
2019-01-25T15:36:58.783Z,101.53
2019-01-25T15:39:28.195Z,78.30
2019-01-25T15:41:58.213Z,96.53
2019-01-25T15:44:27.389Z,100.67
2019-01-25T15:46:56.509Z,102.17
2019-01-25T15:49:29.118Z,99.47
2019-01-25T15:51:58.427Z,95.17
2019-01-25T15:54:28.724Z,91.90
2019-01-25T15:56:58.852Z,100.43
2019-01-25T15:59:28.830Z,91.77
2019-01-25T16:02:07.580Z,92.23
2019-01-25T16:04:49.964Z,93.47
2019-01-25T16:07:19.023Z,87.30
2019-01-25T16:09:48.266Z,87.03
2019-01-25T16:12:17.129Z,85.40
2019-01-25T16:14:45.844Z,80.27
2019-01-25T16:17:14.421Z,85.73
2019-01-25T16:19:43.258Z,77.10
2019-01-25T16:22:12.160Z,77.17
2019-01-25T16:24:40.608Z,80.03
2019-01-25T16:27:09.548Z,70.70
2019-01-25T16:29:38.377Z,73.23
2019-01-25T16:32:07.499Z,70.47
2019-01-25T16:34:36.291Z,60.43
2019-01-25T16:37:05.125Z,59.47
2019-01-25T16:39:35.667Z,62.83
2019-01-25T16:42:08.581Z,62.53
2019-01-25T16:44:41.811Z,62.83
2019-01-25T16:47:10.710Z,62.87
2019-01-25T16:49:44.896Z,55.90
2019-01-25T16:52:13.864Z,53.27
2019-01-25T16:54:45.731Z,53.13
2019-01-25T16:57:16.961Z,47.53
2019-01-25T16:59:45.990Z,51.57
2019-01-25T17:02:16.383Z,46.40
2019-01-25T17:04:46.340Z,49.23
2019-01-25T17:07:15.090Z,50.20
2019-01-25T17:09:43.973Z,48.40
2019-01-25T17:12:12.675Z,52.70
2019-01-25T17:14:50.525Z,49.97
2019-01-25T17:17:20.669Z,48.90
2019-01-25T17:19:52.672Z,50.70
2019-01-25T17:22:27.323Z,51.43
2019-01-25T17:24:58.291Z,56.97
2019-01-25T17:27:26.920Z,57.27
2019-01-25T17:29:55.710Z,57.30
2019-01-25T17:32:26.040Z,52.90
2019-01-25T17:34:54.826Z,58.23
2019-01-25T17:37:23.446Z,63.13
2019-01-25T17:39:55.235Z,60.17
2019-01-25T17:42:24.196Z,69.87
2019-01-25T17:44:52.873Z,64.47
2019-01-25T17:47:21.429Z,67.73
2019-01-25T17:49:50.401Z,68.57
2019-01-25T17:52:21.389Z,76.47
2019-01-25T17:54:49.956Z,74.83
2019-01-25T17:57:21.583Z,87.93
2019-01-25T17:59:50.190Z,91.23
2019-01-25T18:02:19.437Z,94.50
2019-01-25T18:04:48.347Z,93.70
2019-01-25T18:07:17.151Z,101.60
2019-01-25T18:09:45.943Z,108.77
2019-01-25T18:12:14.575Z,107.70
2019-01-25T18:14:49.180Z,123.80
2019-01-25T18:17:16.782Z,123.53
2019-01-25T18:19:48.574Z,127.57
2019-01-25T18:22:20.447Z,134.27
2019-01-25T18:24:50.561Z,120.70
2019-01-25T18:27:24.842Z,128.77
2019-01-25T18:30:01.271Z,141.13
2019-01-25T18:32:31.828Z,141.20
2019-01-25T18:35:23.411Z,107.90
2019-01-25T18:37:55.107Z,119.50
2019-01-25T18:40:48.123Z,119.37
2019-01-25T18:43:23.763Z,121.50
2019-01-25T18:46:03.754Z,122.93
2019-01-25T18:48:46.274Z,120.60
2019-01-25T18:51:15.102Z,120.27
2019-01-25T18:53:45.902Z,110.80
2019-01-25T18:59:11.440Z,104.27
2019-01-25T19:01:43.142Z,112.80
2019-01-25T19:04:27.205Z,103.43
2019-01-25T19:07:01.370Z,91.83
2019-01-25T19:09:40.118Z,87.50
2019-01-25T19:12:23.914Z,101.73
2019-01-25T19:14:47.738Z,99.00
2019-01-25T19:17:39.939Z,87.73
2019-01-25T19:20:09.706Z,93.73
2019-01-25T19:22:40.617Z,85.07
2019-01-25T19:25:09.367Z,90.40
2019-01-25T19:27:44.865Z,85.77
2019-01-25T19:30:18.183Z,82.87
2019-01-25T19:32:47.297Z,75.83
2019-01-25T19:35:41.267Z,81.70
2019-01-25T19:38:12.448Z,77.23
2019-01-25T19:40:41.214Z,81.53
2019-01-25T19:43:10.467Z,70.23
2019-01-25T19:51:10.335Z,67.97
2019-01-25T19:53:39.143Z,63.30
2019-01-25T19:56:07.974Z,50.50
2019-01-25T19:58:36.686Z,53.20
2019-01-25T20:01:06.055Z,68.70
2019-01-25T20:03:43.723Z,54.63
2019-01-25T20:06:35.181Z,58.77
2019-01-25T20:09:28.255Z,49.10
2019-01-25T20:12:00.359Z,48.97
2019-01-25T20:14:29.180Z,45.60
2019-01-25T20:16:57.959Z,41.23
2019-01-25T20:19:32.961Z,49.33
2019-01-25T20:22:02.038Z,41.97
2019-01-25T20:31:11.017Z,35.77
2019-01-25T20:36:44.608Z,37.53
2019-01-25T20:39:25.674Z,44.60
2019-01-25T20:45:32.624Z,41.60
2019-01-25T20:48:09.626Z,37.13
2019-01-25T20:50:48.642Z,34.17
2019-01-25T20:57:07.279Z,31.73
2019-01-25T20:59:43.632Z,29.97
2019-01-25T21:02:33.947Z,32.77
2019-01-25T21:08:10.740Z,27.20
2019-01-25T21:10:54.966Z,29.70
2019-01-25T21:13:30.596Z,41.90
2019-01-25T21:16:02.812Z,30.03
2019-01-25T21:18:36.273Z,28.57
2019-01-25T21:21:09.538Z,31.00
2019-01-25T21:23:43.163Z,38.07
2019-01-25T21:26:24.887Z,28.53
2019-01-25T21:29:00.443Z,25.80
2019-01-25T21:31:35.691Z,33.23
2019-01-25T21:34:07.072Z,37.63
2019-01-25T21:36:37.402Z,32.53
2019-01-25T21:39:12.539Z,33.47
2019-01-25T21:41:41.964Z,28.43
2019-01-25T21:44:13.755Z,33.77
2019-01-25T21:46:48.524Z,38.93
2019-01-25T21:49:17.525Z,31.60
2019-01-25T21:51:49.579Z,31.53
2019-01-25T21:54:36.381Z,35.27
2019-01-25T21:57:09.056Z,21.27
2019-01-25T21:59:38.196Z,30.03
2019-01-25T22:02:09.465Z,38.83
2019-01-25T22:04:43.591Z,32.70
2019-01-25T22:07:12.429Z,34.63
2019-01-25T22:09:45.961Z,34.13
2019-01-25T22:12:16.252Z,32.47
2019-01-25T22:14:48.988Z,23.27
2019-01-25T22:17:22.825Z,27.97
2019-01-25T22:20:04.063Z,28.53
2019-01-25T22:22:40.384Z,29.50
2019-01-25T22:25:13.837Z,22.07
2019-01-25T22:27:48.183Z,28.13
2019-01-25T22:30:23.659Z,24.60
2019-01-25T22:33:01.800Z,28.37
2019-01-25T22:35:43.682Z,25.47
2019-01-25T22:38:28.239Z,26.60
2019-01-25T22:41:09.371Z,32.93
2019-01-25T22:43:49.248Z,21.60
2019-01-25T23:08:06.014Z,27.87
2019-01-25T23:35:23.099Z,21.83
2019-01-25T23:37:53.492Z,23.63
2019-01-25T23:40:24.167Z,26.20
2019-01-25T23:42:53.196Z,24.87
2019-01-25T23:45:21.749Z,24.80
2019-01-25T23:47:55.798Z,29.30
2019-01-25T23:50:21.841Z,29.17
2019-01-25T23:52:50.528Z,28.33
2019-01-25T23:55:19.985Z,20.80
2019-01-25T23:57:48.680Z,29.00
